カンザスシティ の空港の天気 - METARとTAF

カンザスシティ国際空港 ( KMCI / MCI ) - アメリカ ミズーリ州カンザスシティ
飛行場実況気象(Metar)
観測時間06/14 16:53 CDT (06/14 21:53 UTC)
風向・風速北西 2m/s
視程10km以上
天気現象
全天の4割程度の雲 雲底高度 3960m
全天の4割程度の雲 雲底高度 6710m
気温33.9℃
湿度37%
気圧1015.2hPa
METARKMCI 142153Z 32003KT 9SM SCT130 SCT220 34/17 A3002 RMK AO2 SLP152 T03390172
過去の天気等 Google飛行場航空写真 Wunderground天気予報

過去48時間のMETAR

飛行場予報(TAF)
発表時間: 6/14 12:20 CDT (6/14 17:20 UTC)
予報対象時間: 14日13時 CDT ~ 15日13時 CDT
風向・風速不定 3m/s
視程10km以上
少しの雲 雲底高度 7620m
KMCI 141720Z 1418/1518 VRB05KT P6SM FEW250